»·PEaware :: TPX569 KONT-KLAS

TPX569 :: KONT-KLAS

FLIGHT INFORMATION

Flight Status: Arrived
Operator: ATP Experience
More flights by this operator :: More flights under this callsign
Pilot: Dave P. (45)
Aircraft: BOEING 737-800
(B738)
More flights by this aircraft type
Origin: KONT Ontario Intl
United States
Destination: KLAS McCarran Intl
United States
More flights between these airports :: More routes between these airports
Route: +SNSHN4 MISEN KEPEC6
File this flight plan on PilotEdge
Remarks:
Altitude:
(Current/Filed)
29,000ft
Speed:
(Current/Filed)
457kts
Departed: 25-Jul-20 11:29 AM
Arrived: 25-Jul-20 12:14 PM
Distance/Time
Traveled:
171nm/0:44
Distance/Time
To Go:
Arrived

Flight Plot

Page will automatically refresh every two minutes.

Flight plan parsing failed; only flown route is shown


Map Options




Map Legend


Flown Route
Filed Route
Departure Airport
Arrival Airport
Navaid (VOR, NDB)
Fix

Horizontal Profiles

Position Reports

Time Latitude Longitude Heading Altitude Ground
Speed
25-Jul-20 11:03 34.059548 -117.598551 0 952ft 0kts
25-Jul-20 11:04 34.059548 -117.598551 0 952ft 0kts
25-Jul-20 11:05 34.059548 -117.598551 0 952ft 0kts
25-Jul-20 11:06 34.059548 -117.598551 0 952ft 0kts
25-Jul-20 11:07 34.059548 -117.598551 0 952ft 0kts
25-Jul-20 11:08 34.059548 -117.598551 0 952ft 0kts
25-Jul-20 11:09 34.059548 -117.598551 0 952ft 0kts
25-Jul-20 11:10 34.059548 -117.598551 0 952ft 0kts
25-Jul-20 11:11 34.059548 -117.598551 0 952ft 0kts
25-Jul-20 11:12 34.059548 -117.598551 0 952ft 0kts
25-Jul-20 11:13 34.059548 -117.598551 0 952ft 0kts
25-Jul-20 11:14 34.059548 -117.598551 0 952ft 0kts
25-Jul-20 11:15 34.059548 -117.598551 0 952ft 0kts
25-Jul-20 11:16 34.059548 -117.598551 0 952ft 0kts
25-Jul-20 11:17 34.059548 -117.598551 0 952ft 0kts
25-Jul-20 11:18 34.059548 -117.598551 0 952ft 0kts
25-Jul-20 11:19 34.059548 -117.598551 0 952ft 0kts
25-Jul-20 11:20 34.059014 -117.598551 359 952ft 0kts
25-Jul-20 11:21 34.059014 -117.598551 359 952ft 0kts
25-Jul-20 11:22 34.059014 -117.598551 359 952ft 0kts
25-Jul-20 11:23 34.059015 -117.598551 359 952ft 0kts
25-Jul-20 11:24 34.058909 -117.596694 90 952ft 13kts
25-Jul-20 11:25 34.057902 -117.592635 90 952ft 19kts
25-Jul-20 11:26 34.057875 -117.586373 90 952ft 22kts
25-Jul-20 11:27 34.057748 -117.582852 142 952ft 0kts
25-Jul-20 11:28 34.056751 -117.585957 270 952ft 42kts
25-Jul-20 11:29 34.056592 -117.631635 273 2469ft 164kts
25-Jul-20 11:30 34.058841 -117.700368 275 4161ft 251kts
25-Jul-20 11:31 34.079484 -117.784077 298 6656ft 289kts
25-Jul-20 11:32 34.134314 -117.857776 320 9578ft 303kts
25-Jul-20 11:33 34.202301 -117.926905 319 11485ft 351kts
25-Jul-20 11:34 34.290955 -117.974323 9 14021ft 369kts
25-Jul-20 11:35 34.362002 -117.892513 76 16693ft 381kts
25-Jul-20 11:36 34.382829 -117.764513 86 19087ft 397kts
25-Jul-20 11:37 34.392465 -117.628292 78 21190ft 415kts
25-Jul-20 11:38 34.448849 -117.504248 52 22992ft 433kts
25-Jul-20 11:39 34.522378 -117.385413 53 24637ft 448kts
25-Jul-20 11:40 34.597187 -117.262271 53 26065ft 462kts
25-Jul-20 11:41 34.675099 -117.134563 53 27351ft 476kts
25-Jul-20 11:42 34.754479 -117.003628 53 28590ft 487kts
25-Jul-20 11:43 34.835071 -116.869477 54 29031ft 492kts
25-Jul-20 11:44 34.914287 -116.737014 54 29018ft 481kts
25-Jul-20 11:45 34.989704 -116.604654 55 27313ft 469kts
25-Jul-20 11:46 35.062129 -116.475596 56 25215ft 453kts
25-Jul-20 11:47 35.138144 -116.358296 45 23379ft 433kts
25-Jul-20 11:48 35.220140 -116.256012 46 21780ft 411kts
25-Jul-20 11:49 35.298330 -116.157583 47 20282ft 399kts
25-Jul-20 11:50 35.375359 -116.060812 47 18798ft 392kts
25-Jul-20 11:51 35.450730 -115.965783 47 17345ft 384kts
25-Jul-20 11:52 35.523943 -115.873372 47 15918ft 372kts
25-Jul-20 11:53 35.594471 -115.783483 47 14559ft 357kts
25-Jul-20 11:54 35.659582 -115.700349 47 13304ft 320kts
25-Jul-20 11:55 35.719288 -115.624099 47 13001ft 308kts
25-Jul-20 11:56 35.790764 -115.571710 6 13005ft 312kts
25-Jul-20 11:57 35.877869 -115.568717 3 13004ft 313kts
25-Jul-20 11:58 35.963737 -115.558519 26 12994ft 310kts
25-Jul-20 11:59 36.001581 -115.469548 75 12001ft 300kts
25-Jul-20 12:00 36.028208 -115.377272 82 11043ft 276kts
25-Jul-20 12:01 36.024593 -115.283395 96 9940ft 271kts
25-Jul-20 12:02 36.017731 -115.190921 96 8945ft 269kts
25-Jul-20 12:03 36.011655 -115.100935 96 8152ft 249kts
25-Jul-20 12:04 36.006684 -115.018153 95 8020ft 243kts
25-Jul-20 12:05 36.031659 -114.948871 25 7348ft 247kts
25-Jul-20 12:06 36.094645 -114.917230 22 6185ft 232kts
25-Jul-20 12:07 36.151531 -114.906273 319 5226ft 213kts
25-Jul-20 12:08 36.163394 -114.974103 272 5170ft 201kts
25-Jul-20 12:09 36.167756 -115.040368 271 4645ft 180kts
25-Jul-20 12:10 36.146823 -115.092251 242 4127ft 177kts
25-Jul-20 12:11 36.121522 -115.140252 209 2908ft 163kts
25-Jul-20 12:12 36.083031 -115.162469 206 2189ft 110kts
25-Jul-20 12:13 36.074063 -115.166606 117 2189ft 14kts
25-Jul-20 12:14 36.075919 -115.164325 24 2189ft 14kts
25-Jul-20 12:15 36.078039 -115.160718 89 2189ft 16kts
25-Jul-20 12:16 36.078039 -115.154558 90 2189ft 18kts
25-Jul-20 12:17 36.077832 -115.147851 94 2189ft 18kts
25-Jul-20 12:18 36.077565 -115.141861 66 2189ft 12kts
25-Jul-20 12:19 36.079534 -115.138676 35 2189ft 9kts
25-Jul-20 12:20 36.080463 -115.138800 344 2189ft 0kts
25-Jul-20 12:21 36.080463 -115.138800 344 2189ft 0kts
25-Jul-20 12:22 36.080463 -115.138800 344 2189ft 0kts
25-Jul-20 12:23 36.080463 -115.138800 344 2189ft 0kts
25-Jul-20 12:24 36.080463 -115.138800 344 2189ft 0kts
25-Jul-20 12:25 36.080463 -115.138800 344 2189ft 0kts
25-Jul-20 12:26 36.080463 -115.138800 344 2189ft 0kts
25-Jul-20 12:27 36.080463 -115.138800 344 2189ft 0kts

Navigation Log

Ident Type
Flight plan parsing failed, navigation log unavailable